Superstar Express — 3FFX9 — position and weather

sailwx.info

Track history (hours):
 
Tides and Currents Weather Stations Pressure Air Temp Water Temp Dewpoint Dewpoint Depression Visibility Wind Speed Wind Dir Waves Ship Positions

Superstar Express

Operator: P & O Irish Sea

Last reported at 2017-Jun-15 06:40 UTC. Time now 2017-Jun-26 12:06 UTC.
Position N 01°15' E 104°06'.
Warning: this ship's position is 11 days out of date.

Length 183 m; draft 6.9 m.

Type: Cargo ship. MMSI: 351360000.

Date/timePositionNaut miles runAvg speedWind from/ knotsBaromVisibWave heightAir tempDewpointWater temp
2017-Jun-15 06:40N 01°15' E 104°06'310.9
2017-Jun-15 06:26N 01°15' E 104°03'3 7.1
2017-Jun-15 06:01N 01°17' E 104°01'1 0.7
2017-Jun-15 04:33N 01°18' E 104°01'0 0.0
2017-Jun-15 04:21N 01°18' E 104°01'0 0.0
2017-Jun-15 03:57N 01°18' E 104°01'0 0.0
2017-Jun-15 03:24N 01°18' E 104°01'0 0.0
2017-Jun-15 01:57N 01°17' E 104°01'0 0.0
2017-Jun-15 01:27N 01°17' E 104°01'0 0.0
2017-Jun-15 00:45N 01°17' E 104°01'0 0.0
2017-Jun-15 00:30N 01°17' E 104°01'0 0.0
2017-Jun-15 00:00N 01°17' E 104°01'0 0.5
2017-Jun-14 23:30N 01°17' E 104°01'1 2.0
2017-Jun-14 23:00N 01°17' E 104°00'2 4.1
2017-Jun-14 22:30N 01°16' E 103°58'3 5.8
2017-Jun-14 21:59N 01°16' E 104°01'3 6.4
2017-Jun-14 21:30N 01°16' E 104°04'  
Track history (hours):
 
Tides and Currents Weather Stations Pressure Air Temp Water Temp Dewpoint Dewpoint Depression Visibility Wind Speed Wind Dir Waves Ship Positions

Superstar Express

Operator: P & O Irish Sea

Last reported at 2017-Jun-15 06:40 UTC. Time now 2017-Jun-26 12:06 UTC.
Position N 01°15' E 104°06'.
Warning: this ship's position is 11 days out of date.

Length 183 m; draft 6.9 m.

Type: Cargo ship. MMSI: 351360000.

Date/timePositionNaut miles runAvg speedWind from/ knotsBaromVisibWave heightAir tempDewpointWater temp
2017-Jun-15 06:40N 01°15' E 104°06'310.9
2017-Jun-15 06:26N 01°15' E 104°03'3 7.1
2017-Jun-15 06:01N 01°17' E 104°01'1 0.7
2017-Jun-15 04:33N 01°18' E 104°01'0 0.0
2017-Jun-15 04:21N 01°18' E 104°01'0 0.0
2017-Jun-15 03:57N 01°18' E 104°01'0 0.0
2017-Jun-15 03:24N 01°18' E 104°01'0 0.0
2017-Jun-15 01:57N 01°17' E 104°01'0 0.0
2017-Jun-15 01:27N 01°17' E 104°01'0 0.0
2017-Jun-15 00:45N 01°17' E 104°01'0 0.0
2017-Jun-15 00:30N 01°17' E 104°01'0 0.0
2017-Jun-15 00:00N 01°17' E 104°01'0 0.5
2017-Jun-14 23:30N 01°17' E 104°01'1 2.0
2017-Jun-14 23:00N 01°17' E 104°00'2 4.1
2017-Jun-14 22:30N 01°16' E 103°58'3 5.8
2017-Jun-14 21:59N 01°16' E 104°01'3 6.4
2017-Jun-14 21:30N 01°16' E 104°04'  

Dump ship's entire track history